West Lebanon, New Hampshire
Current Conditions -  °F | °C
As of 5:04 AM on Tuesday 27 Jan 2015 (Local Time) from KLEB Reporting Station
Light Snow Light Snow  
Wind Chill:   Ceiling: 1500
Heat Index: 14°   Visibility: 1.5mi
Dew Point:   Wind: 9mph
Humidity: 77%   Direction: 10°N
Pressure: 29.83"   Gusts: NA
Location:  43.65°N, 72.31°W
Report Text: KLEB 271004Z AUTO 01008KT 1 1/2SM -SN OVC015 M10/M13 A2983 RMK AO2 P0000 T11001133
Loading
Personal Weather Stations






























Interactive Weather Map New forecast layout! Learn more

10-Day Weather Forecast

Advertisements
Track Severe Weather on mobile